sensor_id;sensor_type;location;lat;lon;timestamp;pressure;altitude;pressure_sealevel;temperature;humidity
12949;BME280;6539;49.476;8.484;2022-08-21T00:00:24;100565.28;;;24.80;40.17
12949;BME280;6539;49.476;8.484;2022-08-21T00:03:00;100573.97;;;24.82;39.85
12949;BME280;6539;49.476;8.484;2022-08-21T00:05:29;100569.84;;;24.78;40.13
12949;BME280;6539;49.476;8.484;2022-08-21T00:07:56;100569.28;;;24.74;40.15
12949;BME280;6539;49.476;8.484;2022-08-21T00:10:22;100562.91;;;24.73;40.76
12949;BME280;6539;49.476;8.484;2022-08-21T00:12:48;100570.03;;;24.69;40.48
12949;BME280;6539;49.476;8.484;2022-08-21T00:15:21;100568.72;;;24.64;40.75
12949;BME280;6539;49.476;8.484;2022-08-21T00:17:47;100576.09;;;24.62;41.10
12949;BME280;6539;49.476;8.484;2022-08-21T00:20:17;100567.41;;;24.60;41.18
12949;BME280;6539;49.476;8.484;2022-08-21T00:22:45;100569.16;;;24.57;41.15
12949;BME280;6539;49.476;8.484;2022-08-21T00:25:13;100564.03;;;24.56;41.04
12949;BME280;6539;49.476;8.484;2022-08-21T00:27:42;100562.72;;;24.51;41.21
12949;BME280;6539;49.476;8.484;2022-08-21T00:30:12;100568.28;;;24.20;41.77
12949;BME280;6539;49.476;8.484;2022-08-21T00:32:39;100559.06;;;24.14;42.09
12949;BME280;6539;49.476;8.484;2022-08-21T00:35:14;100558.72;;;24.06;42.44
12949;BME280;6539;49.476;8.484;2022-08-21T00:37:42;100568.53;;;23.96;42.79
12949;BME280;6539;49.476;8.484;2022-08-21T00:40:14;100558.56;;;23.95;42.98
12949;BME280;6539;49.476;8.484;2022-08-21T00:42:41;100568.31;;;24.00;42.84
12949;BME280;6539;49.476;8.484;2022-08-21T00:45:12;100563.97;;;23.99;42.74
12949;BME280;6539;49.476;8.484;2022-08-21T00:47:40;100569.78;;;23.95;42.87
12949;BME280;6539;49.476;8.484;2022-08-21T00:50:11;100560.25;;;23.87;43.27
12949;BME280;6539;49.476;8.484;2022-08-21T00:52:38;100565.88;;;23.87;42.97
12949;BME280;6539;49.476;8.484;2022-08-21T00:55:08;100557.69;;;23.84;42.97
12949;BME280;6539;49.476;8.484;2022-08-21T00:57:45;100560.97;;;23.82;43.08
12949;BME280;6539;49.476;8.484;2022-08-21T01:00:22;100561.75;;;23.83;43.02
12949;BME280;6539;49.476;8.484;2022-08-21T01:02:48;100560.47;;;23.84;43.06
12949;BME280;6539;49.476;8.484;2022-08-21T01:05:15;100564.06;;;23.84;43.18
12949;BME280;6539;49.476;8.484;2022-08-21T01:07:42;100562.50;;;23.83;42.94
12949;BME280;6539;49.476;8.484;2022-08-21T01:10:11;100565.03;;;23.81;42.76
12949;BME280;6539;49.476;8.484;2022-08-21T01:12:41;100564.91;;;23.70;43.05
12949;BME280;6539;49.476;8.484;2022-08-21T01:15:10;100566.50;;;23.36;43.88
12949;BME280;6539;49.476;8.484;2022-08-21T01:17:38;100558.63;;;23.20;44.36
12949;BME280;6539;49.476;8.484;2022-08-21T01:20:10;100564.91;;;23.15;44.41
12949;BME280;6539;49.476;8.484;2022-08-21T01:22:36;100563.94;;;23.18;44.68
12949;BME280;6539;49.476;8.484;2022-08-21T01:25:05;100562.00;;;23.24;44.45
12949;BME280;6539;49.476;8.484;2022-08-21T01:27:32;100555.06;;;23.20;44.52
12949;BME280;6539;49.476;8.484;2022-08-21T01:30:12;100560.84;;;23.16;44.69
12949;BME280;6539;49.476;8.484;2022-08-21T01:32:41;100561.72;;;23.22;44.60
12949;BME280;6539;49.476;8.484;2022-08-21T01:35:09;100559.19;;;23.24;44.82
12949;BME280;6539;49.476;8.484;2022-08-21T01:37:35;100561.06;;;23.13;45.06
12949;BME280;6539;49.476;8.484;2022-08-21T01:40:05;100564.81;;;23.10;45.35
12949;BME280;6539;49.476;8.484;2022-08-21T01:42:34;100558.38;;;23.04;45.47
12949;BME280;6539;49.476;8.484;2022-08-21T01:45:02;100558.19;;;23.07;45.45
12949;BME280;6539;49.476;8.484;2022-08-21T01:47:28;100566.09;;;23.09;45.34
12949;BME280;6539;49.476;8.484;2022-08-21T01:49:54;100557.69;;;23.09;45.43
12949;BME280;6539;49.476;8.484;2022-08-21T01:52:20;100558.19;;;23.07;45.17
12949;BME280;6539;49.476;8.484;2022-08-21T01:54:46;100557.91;;;23.05;45.21
12949;BME280;6539;49.476;8.484;2022-08-21T01:57:13;100552.78;;;23.04;45.41
12949;BME280;6539;49.476;8.484;2022-08-21T01:59:41;100550.69;;;22.99;45.63
12949;BME280;6539;49.476;8.484;2022-08-21T02:02:09;100554.22;;;22.99;45.36
12949;BME280;6539;49.476;8.484;2022-08-21T02:04:35;100553.19;;;22.97;45.57
12949;BME280;6539;49.476;8.484;2022-08-21T02:07:01;100548.56;;;22.94;45.49
12949;BME280;6539;49.476;8.484;2022-08-21T02:09:27;100542.00;;;22.97;45.57
12949;BME280;6539;49.476;8.484;2022-08-21T02:11:56;100553.66;;;22.95;45.73
12949;BME280;6539;49.476;8.484;2022-08-21T02:14:22;100541.22;;;22.96;45.54
12949;BME280;6539;49.476;8.484;2022-08-21T02:16:51;100538.88;;;22.95;45.47
12949;BME280;6539;49.476;8.484;2022-08-21T02:19:22;100546.31;;;22.98;45.52
12949;BME280;6539;49.476;8.484;2022-08-21T02:21:50;100542.19;;;22.93;45.42
12949;BME280;6539;49.476;8.484;2022-08-21T02:24:18;100530.91;;;22.88;45.35
12949;BME280;6539;49.476;8.484;2022-08-21T02:26:44;100545.88;;;22.85;45.62
12949;BME280;6539;49.476;8.484;2022-08-21T02:29:10;100540.47;;;22.81;45.66
12949;BME280;6539;49.476;8.484;2022-08-21T02:31:36;100540.94;;;22.80;45.81
12949;BME280;6539;49.476;8.484;2022-08-21T02:34:02;100533.25;;;22.74;45.81
12949;BME280;6539;49.476;8.484;2022-08-21T02:36:28;100532.97;;;22.72;46.02
12949;BME280;6539;49.476;8.484;2022-08-21T02:38:57;100530.16;;;22.72;46.02
12949;BME280;6539;49.476;8.484;2022-08-21T02:41:23;100537.00;;;22.71;45.85
12949;BME280;6539;49.476;8.484;2022-08-21T02:43:51;100533.72;;;22.73;45.76
12949;BME280;6539;49.476;8.484;2022-08-21T02:46:19;100533.25;;;22.74;45.76
12949;BME280;6539;49.476;8.484;2022-08-21T02:48:49;100534.50;;;22.73;45.60
12949;BME280;6539;49.476;8.484;2022-08-21T02:51:19;100528.63;;;22.71;45.70
12949;BME280;6539;49.476;8.484;2022-08-21T02:53:49;100530.34;;;22.69;45.72
12949;BME280;6539;49.476;8.484;2022-08-21T02:56:20;100542.81;;;22.68;45.92
12949;BME280;6539;49.476;8.484;2022-08-21T02:58:53;100535.59;;;22.61;46.03
12949;BME280;6539;49.476;8.484;2022-08-21T03:01:19;100534.31;;;22.62;45.78
12949;BME280;6539;49.476;8.484;2022-08-21T03:03:47;100534.31;;;22.62;45.73
12949;BME280;6539;49.476;8.484;2022-08-21T03:06:22;100527.34;;;22.58;45.86
12949;BME280;6539;49.476;8.484;2022-08-21T03:08:48;100532.66;;;22.56;45.81
12949;BME280;6539;49.476;8.484;2022-08-21T03:11:15;100527.56;;;22.54;46.00
12949;BME280;6539;49.476;8.484;2022-08-21T03:13:43;100529.28;;;22.52;45.83
12949;BME280;6539;49.476;8.484;2022-08-21T03:16:11;100526.19;;;22.50;46.27
12949;BME280;6539;49.476;8.484;2022-08-21T03:18:37;100522.06;;;22.45;46.10
12949;BME280;6539;49.476;8.484;2022-08-21T03:21:06;100519.47;;;22.42;46.15
12949;BME280;6539;49.476;8.484;2022-08-21T03:23:32;100524.56;;;22.43;46.06
12949;BME280;6539;49.476;8.484;2022-08-21T03:25:58;100523.03;;;22.42;45.48
12949;BME280;6539;49.476;8.484;2022-08-21T03:28:24;100527.47;;;22.49;45.61
12949;BME280;6539;49.476;8.484;2022-08-21T03:30:52;100530.56;;;22.51;45.40
12949;BME280;6539;49.476;8.484;2022-08-21T03:33:19;100533.66;;;22.53;44.69
12949;BME280;6539;49.476;8.484;2022-08-21T03:35:58;100531.63;;;22.53;44.60
12949;BME280;6539;49.476;8.484;2022-08-21T03:38:31;100536.94;;;22.51;44.51
12949;BME280;6539;49.476;8.484;2022-08-21T03:41:00;100536.16;;;22.51;44.49
12949;BME280;6539;49.476;8.484;2022-08-21T03:43:28;100540.00;;;22.53;44.74
12949;BME280;6539;49.476;8.484;2022-08-21T03:45:57;100537.69;;;22.52;44.83
12949;BME280;6539;49.476;8.484;2022-08-21T03:48:26;100541.25;;;22.52;44.66
12949;BME280;6539;49.476;8.484;2022-08-21T03:50:53;100534.59;;;22.50;44.54
12949;BME280;6539;49.476;8.484;2022-08-21T03:53:21;100537.59;;;22.46;44.91
12949;BME280;6539;49.476;8.484;2022-08-21T03:55:51;100538.09;;;22.45;44.98
12949;BME280;6539;49.476;8.484;2022-08-21T03:58:25;100537.03;;;22.42;45.17
12949;BME280;6539;49.476;8.484;2022-08-21T04:00:57;100548.41;;;22.39;45.33
12949;BME280;6539;49.476;8.484;2022-08-21T04:03:25;100543.50;;;22.34;45.26
12949;BME280;6539;49.476;8.484;2022-08-21T04:05:54;100553.63;;;22.31;45.45
12949;BME280;6539;49.476;8.484;2022-08-21T04:08:20;100555.34;;;22.29;45.21
12949;BME280;6539;49.476;8.484;2022-08-21T04:10:54;100553.50;;;22.26;45.51
12949;BME280;6539;49.476;8.484;2022-08-21T04:13:20;100559.31;;;22.22;45.50
12949;BME280;6539;49.476;8.484;2022-08-21T04:15:47;100557.66;;;22.16;45.77
12949;BME280;6539;49.476;8.484;2022-08-21T04:18:18;100556.88;;;22.15;45.61
12949;BME280;6539;49.476;8.484;2022-08-21T04:20:49;100567.00;;;22.13;45.88
12949;BME280;6539;49.476;8.484;2022-08-21T04:23:21;100568.75;;;22.10;46.17
12949;BME280;6539;49.476;8.484;2022-08-21T04:25:51;100570.19;;;22.06;46.38
12949;BME280;6539;49.476;8.484;2022-08-21T04:28:17;100575.19;;;22.02;46.46
12949;BME280;6539;49.476;8.484;2022-08-21T04:30:46;100572.88;;;22.00;46.63
12949;BME280;6539;49.476;8.484;2022-08-21T04:33:12;100574.13;;;21.99;46.67
12949;BME280;6539;49.476;8.484;2022-08-21T04:35:38;100575.06;;;21.96;46.61
12949;BME280;6539;49.476;8.484;2022-08-21T04:38:08;100580.19;;;21.97;46.77
12949;BME280;6539;49.476;8.484;2022-08-21T04:40:36;100583.19;;;21.94;46.61
12949;BME280;6539;49.476;8.484;2022-08-21T04:43:10;100591.25;;;21.68;47.31
12949;BME280;6539;49.476;8.484;2022-08-21T04:45:43;100591.47;;;21.65;47.55
12949;BME280;6539;49.476;8.484;2022-08-21T04:48:15;100593.56;;;21.70;47.72
12949;BME280;6539;49.476;8.484;2022-08-21T04:53:37;100589.53;;;21.71;48.34
12949;BME280;6539;49.476;8.484;2022-08-21T04:56:12;100582.97;;;21.74;47.76
12949;BME280;6539;49.476;8.484;2022-08-21T04:58:39;100591.81;;;21.58;48.92
12949;BME280;6539;49.476;8.484;2022-08-21T05:01:12;100592.50;;;21.44;49.77
12949;BME280;6539;49.476;8.484;2022-08-21T05:03:40;100601.59;;;21.30;50.44
12949;BME280;6539;49.476;8.484;2022-08-21T05:06:10;100604.03;;;21.13;51.12
12949;BME280;6539;49.476;8.484;2022-08-21T05:08:39;100601.19;;;20.80;52.04
12949;BME280;6539;49.476;8.484;2022-08-21T05:11:06;100603.94;;;20.89;52.04
12949;BME280;6539;49.476;8.484;2022-08-21T05:13:35;100600.78;;;20.96;52.05
12949;BME280;6539;49.476;8.484;2022-08-21T05:16:01;100602.78;;;21.05;51.93
12949;BME280;6539;49.476;8.484;2022-08-21T05:18:27;100606.81;;;21.13;51.80
12949;BME280;6539;49.476;8.484;2022-08-21T05:20:52;100605.25;;;21.12;52.10
12949;BME280;6539;49.476;8.484;2022-08-21T05:23:18;100606.97;;;21.09;52.35
12949;BME280;6539;49.476;8.484;2022-08-21T05:25:49;100610.53;;;21.10;52.10
12949;BME280;6539;49.476;8.484;2022-08-21T05:28:19;100611.44;;;21.16;52.62
12949;BME280;6539;49.476;8.484;2022-08-21T05:30:45;100610.16;;;21.26;51.85
12949;BME280;6539;49.476;8.484;2022-08-21T05:33:11;100616.34;;;21.30;51.95
12949;BME280;6539;49.476;8.484;2022-08-21T05:35:38;100614.75;;;21.38;51.77
12949;BME280;6539;49.476;8.484;2022-08-21T05:38:07;100624.16;;;21.50;50.95
12949;BME280;6539;49.476;8.484;2022-08-21T05:40:33;100616.81;;;21.52;50.92
12949;BME280;6539;49.476;8.484;2022-08-21T05:43:00;100605.78;;;21.58;50.55
12949;BME280;6539;49.476;8.484;2022-08-21T05:45:31;100612.84;;;21.68;50.33
12949;BME280;6539;49.476;8.484;2022-08-21T05:48:08;100605.72;;;21.90;49.66
12949;BME280;6539;49.476;8.484;2022-08-21T05:50:37;100607.22;;;22.15;49.32
12949;BME280;6539;49.476;8.484;2022-08-21T05:53:09;100610.19;;;22.64;47.93
12949;BME280;6539;49.476;8.484;2022-08-21T05:55:36;100610.00;;;22.83;47.25
12949;BME280;6539;49.476;8.484;2022-08-21T05:58:08;100608.72;;;22.98;47.06
12949;BME280;6539;49.476;8.484;2022-08-21T06:00:34;100611.06;;;23.34;46.47
12949;BME280;6539;49.476;8.484;2022-08-21T06:03:00;100614.94;;;23.77;45.55
12949;BME280;6539;49.476;8.484;2022-08-21T06:05:28;100605.97;;;24.13;44.27
12949;BME280;6539;49.476;8.484;2022-08-21T06:07:54;100613.81;;;24.55;42.86
12949;BME280;6539;49.476;8.484;2022-08-21T06:10:20;100609.88;;;24.73;42.10
12949;BME280;6539;49.476;8.484;2022-08-21T06:12:46;100613.00;;;24.75;42.32
12949;BME280;6539;49.476;8.484;2022-08-21T06:15:12;100619.25;;;24.90;42.09
12949;BME280;6539;49.476;8.484;2022-08-21T06:17:38;100618.09;;;25.08;41.68
12949;BME280;6539;49.476;8.484;2022-08-21T06:20:04;100619.34;;;25.01;40.96
12949;BME280;6539;49.476;8.484;2022-08-21T06:22:30;100620.31;;;24.98;41.10
12949;BME280;6539;49.476;8.484;2022-08-21T06:24:56;100622.22;;;25.12;41.14
12949;BME280;6539;49.476;8.484;2022-08-21T06:27:22;100612.63;;;25.30;40.51
12949;BME280;6539;49.476;8.484;2022-08-21T06:29:47;100619.25;;;25.69;39.38
12949;BME280;6539;49.476;8.484;2022-08-21T06:32:18;100629.06;;;25.85;38.39
12949;BME280;6539;49.476;8.484;2022-08-21T06:34:46;100622.22;;;26.08;38.26
12949;BME280;6539;49.476;8.484;2022-08-21T06:37:12;100619.56;;;26.63;37.19
12949;BME280;6539;49.476;8.484;2022-08-21T06:39:40;100610.09;;;27.05;36.62
12949;BME280;6539;49.476;8.484;2022-08-21T06:42:06;100623.63;;;27.51;35.49
12949;BME280;6539;49.476;8.484;2022-08-21T06:44:43;100616.38;;;27.72;34.93
12949;BME280;6539;49.476;8.484;2022-08-21T06:47:10;100620.75;;;27.73;34.29
12949;BME280;6539;49.476;8.484;2022-08-21T06:49:38;100611.66;;;27.97;33.71
12949;BME280;6539;49.476;8.484;2022-08-21T06:52:12;100614.91;;;28.23;34.50
12949;BME280;6539;49.476;8.484;2022-08-21T06:54:39;100617.72;;;28.23;32.72
12949;BME280;6539;49.476;8.484;2022-08-21T06:57:06;100622.59;;;28.17;33.75
12949;BME280;6539;49.476;8.484;2022-08-21T06:59:36;100613.88;;;28.55;32.74
12949;BME280;6539;49.476;8.484;2022-08-21T07:02:02;100617.41;;;29.02;31.35
12949;BME280;6539;49.476;8.484;2022-08-21T07:04:28;100626.66;;;29.32;31.29
12949;BME280;6539;49.476;8.484;2022-08-21T07:06:56;100620.09;;;29.67;31.62
12949;BME280;6539;49.476;8.484;2022-08-21T07:09:22;100619.22;;;29.96;30.72
12949;BME280;6539;49.476;8.484;2022-08-21T07:11:54;100623.59;;;30.16;30.57
12949;BME280;6539;49.476;8.484;2022-08-21T07:14:23;100620.50;;;30.38;29.64
12949;BME280;6539;49.476;8.484;2022-08-21T07:16:51;100618.78;;;30.48;29.65
12949;BME280;6539;49.476;8.484;2022-08-21T07:19:18;100610.81;;;30.47;29.96
12949;BME280;6539;49.476;8.484;2022-08-21T07:21:44;100612.09;;;30.64;29.06
12949;BME280;6539;49.476;8.484;2022-08-21T07:24:15;100611.31;;;30.64;29.45
12949;BME280;6539;49.476;8.484;2022-08-21T07:26:41;100600.56;;;31.07;28.81
12949;BME280;6539;49.476;8.484;2022-08-21T07:29:08;100603.72;;;31.17;28.54
12949;BME280;6539;49.476;8.484;2022-08-21T07:31:34;100602.09;;;31.21;28.44
12949;BME280;6539;49.476;8.484;2022-08-21T07:34:02;100599.31;;;31.47;28.03
12949;BME280;6539;49.476;8.484;2022-08-21T07:36:28;100604.94;;;31.34;28.25
12949;BME280;6539;49.476;8.484;2022-08-21T07:38:56;100607.16;;;31.68;28.21
12949;BME280;6539;49.476;8.484;2022-08-21T07:41:28;100601.38;;;31.60;28.03
12949;BME280;6539;49.476;8.484;2022-08-21T07:43:59;100595.63;;;31.08;28.83
12949;BME280;6539;49.476;8.484;2022-08-21T07:46:26;100603.47;;;31.46;28.69
12949;BME280;6539;49.476;8.484;2022-08-21T07:48:52;100598.19;;;31.37;28.53
12949;BME280;6539;49.476;8.484;2022-08-21T07:51:28;100596.69;;;31.49;28.74
12949;BME280;6539;49.476;8.484;2022-08-21T07:53:57;100595.59;;;31.79;28.42
12949;BME280;6539;49.476;8.484;2022-08-21T07:56:24;100594.88;;;32.12;27.88
12949;BME280;6539;49.476;8.484;2022-08-21T07:58:51;100592.75;;;32.59;27.56
12949;BME280;6539;49.476;8.484;2022-08-21T08:01:18;100595.41;;;32.78;26.50
12949;BME280;6539;49.476;8.484;2022-08-21T08:03:44;100600.06;;;32.00;27.80
12949;BME280;6539;49.476;8.484;2022-08-21T08:06:11;100595.56;;;31.92;28.22
12949;BME280;6539;49.476;8.484;2022-08-21T08:08:42;100599.09;;;32.18;27.96
12949;BME280;6539;49.476;8.484;2022-08-21T08:11:10;100602.47;;;32.64;27.14
12949;BME280;6539;49.476;8.484;2022-08-21T08:13:54;100599.75;;;32.24;27.75
12949;BME280;6539;49.476;8.484;2022-08-21T08:16:22;100594.38;;;32.00;28.06
12949;BME280;6539;49.476;8.484;2022-08-21T08:18:49;100585.94;;;32.28;28.44
12949;BME280;6539;49.476;8.484;2022-08-21T08:21:16;100590.94;;;32.15;27.93
12949;BME280;6539;49.476;8.484;2022-08-21T08:23:44;100584.19;;;32.39;27.80
12949;BME280;6539;49.476;8.484;2022-08-21T08:26:10;100587.78;;;32.39;27.54
12949;BME280;6539;49.476;8.484;2022-08-21T08:28:38;100583.91;;;32.16;27.83
12949;BME280;6539;49.476;8.484;2022-08-21T08:31:04;100588.72;;;32.21;28.18
12949;BME280;6539;49.476;8.484;2022-08-21T08:33:32;100573.50;;;31.85;28.15
12949;BME280;6539;49.476;8.484;2022-08-21T08:35:58;100576.47;;;31.66;28.61
12949;BME280;6539;49.476;8.484;2022-08-21T08:38:26;100580.97;;;31.48;29.21
12949;BME280;6539;49.476;8.484;2022-08-21T08:41:20;100570.78;;;31.40;29.16
12949;BME280;6539;49.476;8.484;2022-08-21T08:43:59;100565.66;;;31.51;28.96
12949;BME280;6539;49.476;8.484;2022-08-21T08:46:42;100558.06;;;31.46;29.50
12949;BME280;6539;49.476;8.484;2022-08-21T08:57:01;100549.50;;;32.19;28.55
12949;BME280;6539;49.476;8.484;2022-08-21T08:59:41;100544.03;;;32.42;28.34
12949;BME280;6539;49.476;8.484;2022-08-21T09:02:14;100545.00;;;32.65;28.48
12949;BME280;6539;49.476;8.484;2022-08-21T09:04:41;100542.69;;;32.56;28.03
12949;BME280;6539;49.476;8.484;2022-08-21T09:07:11;100544.28;;;32.31;28.61
12949;BME280;6539;49.476;8.484;2022-08-21T09:13:05;100533.06;;;30.74;30.44
12949;BME280;6539;49.476;8.484;2022-08-21T09:27:22;100521.22;;;30.88;29.79
12949;BME280;6539;49.476;8.484;2022-08-21T09:29:56;100518.97;;;30.68;30.31
12949;BME280;6539;49.476;8.484;2022-08-21T09:32:30;100520.69;;;30.58;30.66
12949;BME280;6539;49.476;8.484;2022-08-21T09:37:54;100515.25;;;30.60;30.13
12949;BME280;6539;49.476;8.484;2022-08-21T09:43:22;100511.84;;;31.20;28.90
12949;BME280;6539;49.476;8.484;2022-08-21T09:46:11;100515.47;;;31.46;29.38
12949;BME280;6539;49.476;8.484;2022-08-21T09:48:52;100512.56;;;31.73;28.75
12949;BME280;6539;49.476;8.484;2022-08-21T09:51:32;100515.97;;;32.05;27.94
12949;BME280;6539;49.476;8.484;2022-08-21T09:56:53;100522.94;;;32.38;26.82
12949;BME280;6539;49.476;8.484;2022-08-21T09:59:43;100518.66;;;32.44;27.16
12949;BME280;6539;49.476;8.484;2022-08-21T10:02:35;100512.34;;;32.59;25.58
12949;BME280;6539;49.476;8.484;2022-08-21T10:07:40;100514.69;;;31.20;27.07
12949;BME280;6539;49.476;8.484;2022-08-21T10:10:26;100519.41;;;31.43;26.88
12949;BME280;6539;49.476;8.484;2022-08-21T10:13:27;100515.25;;;31.18;26.50
12949;BME280;6539;49.476;8.484;2022-08-21T10:16:28;100500.50;;;31.07;26.86
12949;BME280;6539;49.476;8.484;2022-08-21T10:22:02;100501.41;;;31.75;26.99
12949;BME280;6539;49.476;8.484;2022-08-21T10:28:11;100505.00;;;32.43;25.96
12949;BME280;6539;49.476;8.484;2022-08-21T10:31:06;100497.63;;;32.68;25.74
12949;BME280;6539;49.476;8.484;2022-08-21T10:33:46;100498.25;;;32.74;25.22
12949;BME280;6539;49.476;8.484;2022-08-21T10:36:33;100496.16;;;32.74;25.37
12949;BME280;6539;49.476;8.484;2022-08-21T10:47:28;100473.91;;;32.45;25.62
12949;BME280;6539;49.476;8.484;2022-08-21T10:53:08;100472.56;;;32.17;25.51
12949;BME280;6539;49.476;8.484;2022-08-21T10:58:48;100466.78;;;32.10;25.73
12949;BME280;6539;49.476;8.484;2022-08-21T11:01:44;100467.91;;;32.27;25.72
12949;BME280;6539;49.476;8.484;2022-08-21T11:04:24;100461.84;;;32.31;25.03
12949;BME280;6539;49.476;8.484;2022-08-21T11:07:02;100467.91;;;32.07;25.57
12949;BME280;6539;49.476;8.484;2022-08-21T11:09:30;100461.19;;;31.84;25.79
12949;BME280;6539;49.476;8.484;2022-08-21T11:12:31;100462.13;;;31.66;26.39
12949;BME280;6539;49.476;8.484;2022-08-21T11:15:26;100456.47;;;31.99;26.18
12949;BME280;6539;49.476;8.484;2022-08-21T11:18:26;100449.19;;;32.32;25.76
12949;BME280;6539;49.476;8.484;2022-08-21T11:26:59;100444.81;;;32.52;25.08
12949;BME280;6539;49.476;8.484;2022-08-21T11:29:35;100443.97;;;32.44;25.29
12949;BME280;6539;49.476;8.484;2022-08-21T11:33:00;100439.97;;;32.39;25.23
12949;BME280;6539;49.476;8.484;2022-08-21T11:38:12;100444.53;;;32.63;24.43
12949;BME280;6539;49.476;8.484;2022-08-21T11:43:48;100423.78;;;31.93;25.59
12949;BME280;6539;49.476;8.484;2022-08-21T11:47:15;100428.69;;;31.92;25.49
12949;BME280;6539;49.476;8.484;2022-08-21T11:50:16;100425.06;;;32.05;25.59
12949;BME280;6539;49.476;8.484;2022-08-21T11:52:56;100428.53;;;32.31;25.44
12949;BME280;6539;49.476;8.484;2022-08-21T11:55:43;100424.38;;;32.12;24.45
12949;BME280;6539;49.476;8.484;2022-08-21T11:58:25;100425.22;;;31.66;25.35
12949;BME280;6539;49.476;8.484;2022-08-21T12:01:02;100423.66;;;31.31;25.83
12949;BME280;6539;49.476;8.484;2022-08-21T12:03:36;100420.06;;;31.30;25.85
12949;BME280;6539;49.476;8.484;2022-08-21T12:06:13;100411.41;;;31.36;25.58
12949;BME280;6539;49.476;8.484;2022-08-21T12:08:46;100413.50;;;31.35;26.05
12949;BME280;6539;49.476;8.484;2022-08-21T12:11:26;100409.56;;;31.25;25.96
12949;BME280;6539;49.476;8.484;2022-08-21T12:16:44;100403.06;;;31.04;26.29
12949;BME280;6539;49.476;8.484;2022-08-21T12:24:33;100402.34;;;31.50;25.82
12949;BME280;6539;49.476;8.484;2022-08-21T12:27:41;100403.47;;;31.68;26.22
12949;BME280;6539;49.476;8.484;2022-08-21T12:33:05;100400.75;;;32.17;25.72
12949;BME280;6539;49.476;8.484;2022-08-21T12:35:43;100400.88;;;32.32;25.35
12949;BME280;6539;49.476;8.484;2022-08-21T12:38:21;100393.56;;;32.44;25.35
12949;BME280;6539;49.476;8.484;2022-08-21T12:43:30;100386.66;;;32.32;25.13
12949;BME280;6539;49.476;8.484;2022-08-21T12:46:00;100388.16;;;32.33;25.51
12949;BME280;6539;49.476;8.484;2022-08-21T12:48:52;100384.41;;;32.38;25.05
12949;BME280;6539;49.476;8.484;2022-08-21T12:51:46;100381.50;;;32.51;24.89
12949;BME280;6539;49.476;8.484;2022-08-21T12:54:30;100376.13;;;32.68;24.79
12949;BME280;6539;49.476;8.484;2022-08-21T12:57:00;100373.25;;;32.61;24.79
12949;BME280;6539;49.476;8.484;2022-08-21T12:59:27;100381.91;;;32.55;24.58
12949;BME280;6539;49.476;8.484;2022-08-21T13:01:59;100381.78;;;32.61;24.28
12949;BME280;6539;49.476;8.484;2022-08-21T13:04:39;100382.88;;;32.58;24.48
12949;BME280;6539;49.476;8.484;2022-08-21T13:07:13;100376.22;;;32.55;24.22
12949;BME280;6539;49.476;8.484;2022-08-21T13:09:54;100381.00;;;32.40;24.58
12949;BME280;6539;49.476;8.484;2022-08-21T13:12:23;100382.06;;;32.50;24.46
12949;BME280;6539;49.476;8.484;2022-08-21T13:14:51;100379.06;;;32.55;24.08
12949;BME280;6539;49.476;8.484;2022-08-21T13:17:20;100371.88;;;32.54;23.70
12949;BME280;6539;49.476;8.484;2022-08-21T13:20:04;100376.22;;;32.55;24.17
12949;BME280;6539;49.476;8.484;2022-08-21T13:22:40;100368.59;;;32.50;24.28
12949;BME280;6539;49.476;8.484;2022-08-21T13:25:14;100370.50;;;32.48;24.19
12949;BME280;6539;49.476;8.484;2022-08-21T13:28:08;100368.59;;;32.50;24.06
12949;BME280;6539;49.476;8.484;2022-08-21T13:30:57;100368.13;;;32.39;24.18
12949;BME280;6539;49.476;8.484;2022-08-21T13:33:26;100365.22;;;32.31;24.26
12949;BME280;6539;49.476;8.484;2022-08-21T13:36:17;100372.03;;;32.28;24.97
12949;BME280;6539;49.476;8.484;2022-08-21T13:38:46;100358.13;;;32.17;24.81
12949;BME280;6539;49.476;8.484;2022-08-21T13:41:23;100354.78;;;32.26;24.80
12949;BME280;6539;49.476;8.484;2022-08-21T13:44:22;100359.78;;;32.12;24.63
12949;BME280;6539;49.476;8.484;2022-08-21T13:46:56;100352.38;;;31.89;24.80
12949;BME280;6539;49.476;8.484;2022-08-21T13:49:36;100351.75;;;31.83;25.31
12949;BME280;6539;49.476;8.484;2022-08-21T13:52:14;100350.63;;;31.86;24.91
12949;BME280;6539;49.476;8.484;2022-08-21T13:55:00;100336.56;;;31.80;25.35
12949;BME280;6539;49.476;8.484;2022-08-21T13:57:34;100335.59;;;31.78;25.06
12949;BME280;6539;49.476;8.484;2022-08-21T14:00:19;100339.97;;;31.79;25.14
12949;BME280;6539;49.476;8.484;2022-08-21T14:03:01;100343.84;;;31.68;25.11
12949;BME280;6539;49.476;8.484;2022-08-21T14:05:32;100340.16;;;31.60;24.76
12949;BME280;6539;49.476;8.484;2022-08-21T14:08:11;100338.81;;;31.40;25.20
12949;BME280;6539;49.476;8.484;2022-08-21T14:10:49;100335.28;;;31.27;25.16
12949;BME280;6539;49.476;8.484;2022-08-21T14:13:42;100329.81;;;31.29;25.49
12949;BME280;6539;49.476;8.484;2022-08-21T14:16:21;100325.16;;;31.39;25.93
12949;BME280;6539;49.476;8.484;2022-08-21T14:21:42;100312.97;;;31.31;25.91
12949;BME280;6539;49.476;8.484;2022-08-21T14:24:29;100314.31;;;31.17;25.30
12949;BME280;6539;49.476;8.484;2022-08-21T14:27:02;100305.44;;;31.00;25.10
12949;BME280;6539;49.476;8.484;2022-08-21T14:29:38;100304.25;;;30.95;25.40
12949;BME280;6539;49.476;8.484;2022-08-21T14:32:28;100304.47;;;30.97;25.71
12949;BME280;6539;49.476;8.484;2022-08-21T14:34:57;100306.97;;;31.01;25.76
12949;BME280;6539;49.476;8.484;2022-08-21T14:37:24;100302.91;;;31.09;25.78
12949;BME280;6539;49.476;8.484;2022-08-21T14:39:51;100300.28;;;31.11;25.33
12949;BME280;6539;49.476;8.484;2022-08-21T14:42:17;100287.97;;;31.09;25.87
12949;BME280;6539;49.476;8.484;2022-08-21T14:44:43;100295.28;;;31.04;26.38
12949;BME280;6539;49.476;8.484;2022-08-21T14:47:12;100296.72;;;30.98;26.69
12949;BME280;6539;49.476;8.484;2022-08-21T14:49:38;100287.91;;;30.88;27.05
12949;BME280;6539;49.476;8.484;2022-08-21T14:52:09;100287.25;;;30.69;27.16